Time;durP1;ratioP1;P1;durP2;ratioP2;P2;SDS_P1;SDS_P2;PMS_P1;PMS_P2;Temp;Humidity;BMP_temperature;BMP_pressure;BME280_temperature;BME280_humidity;BME280_pressure;Samples;Min_cycle;Max_cycle;Signal;HPM_P1;HPM_P2
2023/01/01 00:01:42;;;;;;;36.53;31.33;;;17.60;56.70;;;;;;5032507;28;20212;-57
2023/01/01 00:04:12;;;;;;;38.70;31.87;;;17.70;56.50;;;;;;5031293;28;20476;-58
2023/01/01 00:06:37;;;;;;;36.57;28.60;;;17.60;56.70;;;;;;5032260;28;20197;-57
2023/01/01 00:11:47;;;;;;;34.97;27.27;;;17.60;56.20;;;;;;5032241;28;20252;-58
2023/01/01 00:14:12;;;;;;;29.40;26.23;;;17.60;56.10;;;;;;5032267;28;20456;-58
2023/01/01 00:16:38;;;;;;;31.90;27.90;;;17.70;55.90;;;;;;5032133;28;20197;-57
2023/01/01 00:19:04;;;;;;;35.57;29.70;;;17.70;55.90;;;;;;5032049;28;20203;-58
2023/01/01 00:21:29;;;;;;;29.63;26.47;;;17.70;55.80;;;;;;5030439;28;20200;-57
2023/01/01 00:23:55;;;;;;;33.13;27.77;;;17.80;55.80;;;;;;5031380;28;20241;-58
2023/01/01 00:26:20;;;;;;;33.37;27.03;;;17.90;55.60;;;;;;5031784;28;20193;-59
2023/01/01 00:28:46;;;;;;;33.30;27.50;;;17.80;55.90;;;;;;5031996;28;20196;-58
2023/01/01 00:31:21;;;;;;;31.20;26.63;;;17.80;55.50;;;;;;5031979;28;20189;-58
2023/01/01 00:33:52;;;;;;;33.07;26.47;;;17.90;55.30;;;;;;5031715;28;20485;-58
2023/01/01 00:36:19;;;;;;;28.90;24.67;;;17.90;55.40;;;;;;5031837;28;20427;-57
2023/01/01 00:38:45;;;;;;;27.30;21.67;;;17.80;55.40;;;;;;5031659;28;20431;-58
2023/01/01 00:41:12;;;;;;;26.20;20.50;;;17.70;55.40;;;;;;5031779;28;20423;-57
2023/01/01 00:43:38;;;;;;;25.10;21.23;;;17.70;55.60;;;;;;5031385;28;20491;-57
2023/01/01 00:46:05;;;;;;;22.10;17.80;;;17.70;55.50;;;;;;5031930;28;20775;-57
2023/01/01 00:48:31;;;;;;;20.13;16.80;;;17.80;55.50;;;;;;5030038;28;20420;-58
2023/01/01 00:50:57;;;;;;;19.37;17.40;;;17.70;55.30;;;;;;5031509;28;20981;-59
2023/01/01 00:53:23;;;;;;;20.53;16.03;;;17.80;55.40;;;;;;5031469;28;20424;-58
2023/01/01 00:55:49;;;;;;;18.70;14.93;;;17.70;55.10;;;;;;5031003;28;20524;-58
2023/01/01 00:58:17;;;;;;;18.73;16.70;;;17.70;55.20;;;;;;5031342;28;20185;-57
2023/01/01 01:00:43;;;;;;;20.90;17.40;;;17.90;55.10;;;;;;5031240;28;20435;-58
2023/01/01 01:03:10;;;;;;;19.23;17.13;;;18.00;54.80;;;;;;5031404;28;20480;-58
2023/01/01 01:06:09;;;;;;;19.30;17.30;;;18.00;54.70;;;;;;5031319;28;20432;-57
2023/01/01 01:08:37;;;;;;;18.97;16.97;;;18.10;54.50;;;;;;5031338;28;20432;-58
2023/01/01 01:11:23;;;;;;;19.63;17.53;;;18.20;54.20;;;;;;5031325;28;20877;-58
2023/01/01 01:13:52;;;;;;;22.20;17.07;;;18.30;53.90;;;;;;5030299;28;20936;-58
2023/01/01 01:16:22;;;;;;;23.63;16.00;;;18.40;53.80;;;;;;5029592;28;20432;-58
2023/01/01 01:18:52;;;;;;;19.80;17.20;;;18.50;53.50;;;;;;5030898;28;20478;-58
2023/01/01 01:21:19;;;;;;;20.00;15.67;;;18.50;53.30;;;;;;5031215;28;20432;-58
2023/01/01 01:23:44;;;;;;;18.37;15.63;;;18.50;53.40;;;;;;5030354;28;20499;-58
2023/01/01 01:26:14;;;;;;;17.87;15.67;;;18.60;53.20;;;;;;5031129;28;20457;-58
2023/01/01 01:28:39;;;;;;;16.73;14.27;;;18.60;52.90;;;;;;5031355;28;20789;-58
2023/01/01 01:31:05;;;;;;;17.03;14.20;;;18.60;52.80;;;;;;5030927;28;20431;-57
2023/01/01 01:33:31;;;;;;;18.60;13.80;;;18.50;52.70;;;;;;5030395;28;20197;-58
2023/01/01 01:35:57;;;;;;;15.47;13.87;;;18.60;52.90;;;;;;5030843;28;20189;-58
2023/01/01 01:38:23;;;;;;;16.63;14.73;;;18.60;52.90;;;;;;5030806;28;20435;-58
2023/01/01 01:40:48;;;;;;;15.67;13.93;;;18.60;52.80;;;;;;5029856;28;20693;-58
2023/01/01 01:43:33;;;;;;;17.47;13.60;;;18.70;52.70;;;;;;5030427;28;20229;-58
2023/01/01 01:46:25;;;;;;;18.00;13.90;;;18.70;52.70;;;;;;5030648;28;20196;-58
2023/01/01 01:48:51;;;;;;;20.00;14.33;;;18.70;52.60;;;;;;5030830;28;20787;-57
2023/01/01 01:51:32;;;;;;;17.23;14.70;;;18.70;52.70;;;;;;5030596;28;20420;-58
2023/01/01 01:54:02;;;;;;;22.17;14.10;;;18.60;52.70;;;;;;5030417;28;20825;-58
2023/01/01 01:56:44;;;;;;;16.40;14.40;;;18.60;52.70;;;;;;5030935;28;20451;-58
2023/01/01 01:59:09;;;;;;;17.80;15.20;;;18.60;52.80;;;;;;5030798;28;20863;-58
2023/01/01 02:01:35;;;;;;;17.00;15.10;;;18.60;52.70;;;;;;5030579;28;20428;-58
2023/01/01 02:04:02;;;;;;;22.53;15.40;;;18.50;52.90;;;;;;5030152;28;20262;-58
2023/01/01 02:06:30;;;;;;;18.30;15.50;;;18.40;53.10;;;;;;5030820;28;20240;-57
2023/01/01 02:09:03;;;;;;;17.10;15.07;;;18.30;53.20;;;;;;5028955;28;20423;-58
2023/01/01 02:11:28;;;;;;;19.37;15.33;;;18.20;53.50;;;;;;5030662;28;20467;-58
2023/01/01 02:13:55;;;;;;;19.07;13.80;;;18.20;53.60;;;;;;5030223;28;20959;-58
2023/01/01 02:16:27;;;;;;;16.80;14.57;;;18.10;53.60;;;;;;5030749;28;20272;-58
2023/01/01 02:19:14;;;;;;;16.83;14.80;;;17.90;54.20;;;;;;5030503;28;20436;-58
2023/01/01 02:21:48;;;;;;;19.13;15.37;;;17.90;54.20;;;;;;5030667;28;20424;-58
2023/01/01 02:24:49;;;;;;;18.30;15.17;;;18.10;54.60;;;;;;5030209;28;20581;-58
2023/01/01 02:27:44;;;;;;;15.27;13.50;;;18.00;53.80;;;;;;5022062;28;20530;-57
2023/01/01 02:30:11;;;;;;;19.20;14.37;;;17.80;54.00;;;;;;5034327;28;20444;-57
2023/01/01 02:32:47;;;;;;;18.33;12.97;;;17.80;54.40;;;;;;5034180;28;20432;-58
2023/01/01 02:35:37;;;;;;;11.87;10.43;;;17.80;54.20;;;;;;5032125;28;21002;-58
2023/01/01 02:38:48;;;;;;;12.03;10.73;;;18.00;53.90;;;;;;5033897;28;20807;-58
2023/01/01 02:41:38;;;;;;;13.70;10.87;;;18.10;53.50;;;;;;5031457;28;20455;-57
2023/01/01 02:44:04;;;;;;;13.87;10.63;;;18.00;53.60;;;;;;5027942;28;20587;-57
2023/01/01 02:46:34;;;;;;;14.23;11.67;;;18.00;54.00;;;;;;5033677;28;20523;-58
2023/01/01 02:49:00;;;;;;;14.87;12.20;;;18.00;53.70;;;;;;5033688;28;20605;-58
2023/01/01 02:51:43;;;;;;;12.50;10.87;;;17.90;53.90;;;;;;5033719;28;20431;-58
2023/01/01 02:54:19;;;;;;;14.80;9.70;;;17.90;54.00;;;;;;5033284;28;20443;-57
2023/01/01 02:57:08;;;;;;;10.77;9.40;;;17.80;53.60;;;;;;5033559;28;20419;-58
2023/01/01 03:03:07;;;;;;;12.93;10.20;;;17.70;54.20;;;;;;5033398;28;20431;-58
2023/01/01 03:09:04;;;;;;;14.70;9.80;;;17.80;53.80;;;;;;5033428;28;20430;-58
2023/01/01 03:11:47;;;;;;;9.03;7.97;;;17.80;53.90;;;;;;5033369;28;20462;-57
2023/01/01 03:14:39;;;;;;;9.57;8.20;;;18.10;53.50;;;;;;5033167;28;20428;-58
2023/01/01 03:17:27;;;;;;;10.83;8.60;;;18.10;53.20;;;;;;5033072;28;20432;-58
2023/01/01 03:19:55;;;;;;;10.70;9.60;;;17.90;53.70;;;;;;5033040;28;20853;-58
2023/01/01 03:22:26;;;;;;;11.13;7.80;;;18.10;53.50;;;;;;5033004;28;20567;-58
2023/01/01 03:24:58;;;;;;;8.90;7.10;;;18.10;53.40;;;;;;5032838;28;20903;-58
2023/01/01 03:27:33;;;;;;;7.97;6.77;;;18.10;53.30;;;;;;5031432;28;20830;-57
2023/01/01 03:30:01;;;;;;;7.80;6.53;;;18.10;53.40;;;;;;5032935;28;20954;-59
2023/01/01 03:35:20;;;;;;;7.20;6.50;;;18.10;53.20;;;;;;5032990;28;21007;-58
2023/01/01 03:37:50;;;;;;;9.07;6.00;;;18.00;53.30;;;;;;5032242;28;20486;-58
2023/01/01 03:40:18;;;;;;;7.57;6.20;;;18.10;53.40;;;;;;5032956;28;20782;-58
2023/01/01 03:42:51;;;;;;;9.63;6.50;;;18.10;53.30;;;;;;5032659;28;20795;-58
2023/01/01 03:45:22;;;;;;;6.63;5.93;;;17.90;53.40;;;;;;5032536;28;20796;-58
2023/01/01 03:47:48;;;;;;;8.90;5.73;;;17.90;53.80;;;;;;5032495;28;20440;-58
2023/01/01 03:50:15;;;;;;;6.53;5.50;;;17.90;53.90;;;;;;5032547;28;20835;-58
2023/01/01 03:52:46;;;;;;;6.50;5.30;;;17.90;53.90;;;;;;5032566;28;20277;-58
2023/01/01 03:55:35;;;;;;;7.00;4.93;;;17.80;54.00;;;;;;5030749;28;20428;-58
2023/01/01 03:58:07;;;;;;;5.77;5.13;;;18.00;53.90;;;;;;5032509;28;20475;-58
2023/01/01 04:00:36;;;;;;;6.77;5.80;;;17.90;53.70;;;;;;5032431;28;20440;-58
2023/01/01 04:03:11;;;;;;;7.17;5.73;;;18.00;53.60;;;;;;5032366;28;20471;-57
2023/01/01 04:05:39;;;;;;;6.77;5.70;;;17.90;53.60;;;;;;5032290;28;20434;-57
2023/01/01 04:08:06;;;;;;;6.13;5.03;;;18.00;53.70;;;;;;5032308;28;20417;-58
2023/01/01 04:10:34;;;;;;;6.07;4.77;;;17.90;53.40;;;;;;5032279;28;20440;-58
2023/01/01 04:13:03;;;;;;;7.63;4.87;;;18.00;53.50;;;;;;5032247;28;20423;-58
2023/01/01 04:15:30;;;;;;;5.00;4.50;;;18.00;53.40;;;;;;5031672;28;20443;-58
2023/01/01 04:17:56;;;;;;;6.57;5.50;;;18.00;53.30;;;;;;5032122;28;20944;-58
2023/01/01 04:20:22;;;;;;;9.30;4.90;;;18.10;53.20;;;;;;5030420;28;20424;-58
2023/01/01 04:22:48;;;;;;;5.70;5.10;;;18.30;52.90;;;;;;5031763;28;20287;-58
2023/01/01 04:25:16;;;;;;;6.43;4.80;;;18.30;52.90;;;;;;5031388;28;21042;-58
2023/01/01 04:27:42;;;;;;;5.43;4.93;;;18.20;53.00;;;;;;5032076;28;20240;-58
2023/01/01 04:30:10;;;;;;;7.73;5.10;;;18.40;52.70;;;;;;5031767;28;20464;-58
2023/01/01 04:32:35;;;;;;;6.20;4.17;;;18.30;52.80;;;;;;5031802;28;20419;-58
2023/01/01 04:35:01;;;;;;;5.27;4.47;;;18.40;52.60;;;;;;5031432;28;20428;-58
2023/01/01 04:37:27;;;;;;;6.87;5.17;;;18.40;52.60;;;;;;5031858;28;20296;-58
2023/01/01 04:39:52;;;;;;;5.60;5.00;;;18.50;52.60;;;;;;5031888;28;20197;-58
2023/01/01 04:42:18;;;;;;;6.50;5.20;;;18.40;52.60;;;;;;5031851;28;20195;-58
2023/01/01 04:44:44;;;;;;;4.70;4.17;;;18.40;52.80;;;;;;5031216;28;20252;-58
2023/01/01 04:47:10;;;;;;;5.03;4.50;;;18.40;52.60;;;;;;5030181;28;20468;-58
2023/01/01 04:49:35;;;;;;;6.20;4.93;;;18.40;52.60;;;;;;5030906;28;20185;-58
2023/01/01 04:52:01;;;;;;;4.70;4.30;;;18.40;52.70;;;;;;5031755;28;20247;-58
2023/01/01 04:54:27;;;;;;;5.10;4.60;;;18.30;52.60;;;;;;5031212;28;20243;-57
2023/01/01 04:56:52;;;;;;;7.00;5.40;;;18.20;52.80;;;;;;5031594;28;20611;-58
2023/01/01 04:59:18;;;;;;;5.03;4.10;;;18.20;53.00;;;;;;5031284;28;20644;-57
2023/01/01 05:01:43;;;;;;;5.13;4.63;;;18.00;53.30;;;;;;5031208;28;20197;-58
2023/01/01 05:04:13;;;;;;;8.73;4.73;;;18.10;53.20;;;;;;5030883;28;20673;-58
2023/01/01 05:06:38;;;;;;;8.43;4.00;;;18.10;53.30;;;;;;5031282;28;20197;-58
2023/01/01 05:09:04;;;;;;;5.60;4.87;;;18.10;53.40;;;;;;5031100;28;20424;-58
2023/01/01 05:11:30;;;;;;;5.20;4.50;;;18.10;53.10;;;;;;5031221;28;20615;-58
2023/01/01 05:13:59;;;;;;;5.43;4.30;;;18.10;53.20;;;;;;5029425;28;20220;-57
2023/01/01 05:16:30;;;;;;;5.17;4.67;;;18.00;53.40;;;;;;5031395;28;20424;-57
2023/01/01 05:18:56;;;;;;;5.20;4.40;;;18.00;53.40;;;;;;5031443;28;20927;-58
2023/01/01 05:21:24;;;;;;;4.83;4.07;;;18.00;53.50;;;;;;5031027;28;20443;-57
2023/01/01 05:23:55;;;;;;;4.83;4.03;;;18.00;53.50;;;;;;5030546;28;20243;-58
2023/01/01 05:26:22;;;;;;;4.73;3.70;;;17.90;53.50;;;;;;5030878;28;21006;-58
2023/01/01 05:28:49;;;;;;;6.10;4.80;;;17.90;53.70;;;;;;5030964;28;20460;-57
2023/01/01 05:31:18;;;;;;;3.90;3.47;;;17.70;53.90;;;;;;5030760;28;20432;-58
2023/01/01 05:33:44;;;;;;;5.07;4.37;;;17.70;54.00;;;;;;5030628;28;20782;-58
2023/01/01 05:36:15;;;;;;;4.53;3.50;;;17.80;54.00;;;;;;5031111;28;20561;-57
2023/01/01 05:38:40;;;;;;;6.80;4.47;;;17.70;53.90;;;;;;5031181;28;20494;-58
2023/01/01 05:41:07;;;;;;;4.30;3.90;;;17.70;53.90;;;;;;5029195;28;20927;-58
2023/01/01 05:43:33;;;;;;;5.10;3.90;;;17.60;54.20;;;;;;5030357;28;20235;-58
2023/01/01 05:46:04;;;;;;;4.40;3.80;;;17.60;54.10;;;;;;5030706;28;20424;-58
2023/01/01 05:48:29;;;;;;;5.57;4.13;;;17.50;54.20;;;;;;5030806;28;20543;-58
2023/01/01 05:51:11;;;;;;;4.43;4.00;;;17.40;54.50;;;;;;5031027;28;20919;-58
2023/01/01 05:53:36;;;;;;;5.30;3.83;;;17.40;54.60;;;;;;5030510;28;20197;-57
2023/01/01 05:56:03;;;;;;;6.37;4.57;;;17.50;54.50;;;;;;5030903;28;20428;-58
2023/01/01 05:58:30;;;;;;;4.53;4.00;;;17.50;54.40;;;;;;5030701;28;20185;-58
2023/01/01 06:00:56;;;;;;;5.20;3.60;;;17.60;54.30;;;;;;5032890;28;20416;-58
2023/01/01 06:03:22;;;;;;;4.23;3.83;;;17.60;54.20;;;;;;5034171;28;20482;-57
2023/01/01 06:05:47;;;;;;;6.00;3.80;;;17.60;54.10;;;;;;5033558;28;20554;-57
2023/01/01 06:08:13;;;;;;;4.13;3.73;;;17.50;54.20;;;;;;5034174;28;20419;-58
2023/01/01 06:10:39;;;;;;;4.90;3.80;;;17.50;54.40;;;;;;5034595;28;20221;-58
2023/01/01 06:13:05;;;;;;;4.00;3.60;;;17.60;54.00;;;;;;5034037;28;20197;-58
2023/01/01 06:15:30;;;;;;;3.80;3.50;;;17.50;54.00;;;;;;5034456;28;20193;-58
2023/01/01 06:17:57;;;;;;;4.57;3.43;;;17.50;54.20;;;;;;5034257;28;20345;-58
2023/01/01 06:20:23;;;;;;;4.57;4.17;;;17.40;54.20;;;;;;5034223;28;20243;-57
2023/01/01 06:22:49;;;;;;;4.23;3.40;;;17.40;54.20;;;;;;5033993;28;20469;-58
2023/01/01 06:25:15;;;;;;;4.43;3.90;;;17.50;54.30;;;;;;5033763;28;20424;-58
2023/01/01 06:27:40;;;;;;;3.60;3.30;;;17.50;54.20;;;;;;5034551;28;20535;-57
2023/01/01 06:30:07;;;;;;;4.73;3.33;;;17.50;54.10;;;;;;5034167;28;20193;-58
2023/01/01 06:32:33;;;;;;;3.80;3.40;;;17.60;53.90;;;;;;5032207;28;20576;-58
2023/01/01 06:34:58;;;;;;;5.00;4.40;;;17.60;53.80;;;;;;5033731;28;20481;-58
2023/01/01 06:37:24;;;;;;;6.00;3.63;;;17.60;53.80;;;;;;5033964;28;20197;-58
2023/01/01 06:39:50;;;;;;;4.83;3.23;;;17.40;54.10;;;;;;5032512;28;20224;-58
2023/01/01 06:42:16;;;;;;;5.27;4.60;;;17.40;54.30;;;;;;5033979;28;20196;-57
2023/01/01 06:44:41;;;;;;;4.27;3.70;;;17.40;54.00;;;;;;5033798;28;20742;-57
2023/01/01 06:47:07;;;;;;;4.50;3.43;;;17.50;54.00;;;;;;5033791;28;20628;-57
2023/01/01 06:49:33;;;;;;;6.73;3.30;;;17.40;53.70;;;;;;5033678;28;20243;-58
2023/01/01 06:51:58;;;;;;;4.43;4.03;;;17.40;54.10;;;;;;5033773;28;20563;-58
2023/01/01 06:54:24;;;;;;;4.50;4.07;;;17.50;53.90;;;;;;5033381;28;20440;-58
2023/01/01 06:56:50;;;;;;;5.57;4.23;;;17.50;53.70;;;;;;5033733;28;20197;-58
2023/01/01 06:59:18;;;;;;;4.27;3.67;;;17.40;53.90;;;;;;5031871;28;20264;-57
2023/01/01 07:01:44;;;;;;;5.70;3.57;;;17.30;54.00;;;;;;5033533;28;20196;-57
2023/01/01 07:04:12;;;;;;;4.50;4.10;;;17.40;53.80;;;;;;5033109;28;20487;-58
2023/01/01 07:06:38;;;;;;;4.20;3.47;;;17.40;53.60;;;;;;5033643;28;20250;-57
2023/01/01 07:09:07;;;;;;;4.03;3.63;;;17.40;53.50;;;;;;5033481;28;20428;-58
2023/01/01 07:11:33;;;;;;;5.80;4.40;;;17.60;53.40;;;;;;5032871;28;20657;-58
2023/01/01 07:13:59;;;;;;;4.60;4.07;;;17.60;53.10;;;;;;5032880;28;20491;-58
2023/01/01 07:16:25;;;;;;;4.73;3.80;;;17.70;52.90;;;;;;5031988;28;20460;-58
2023/01/01 07:18:51;;;;;;;10.23;3.80;;;17.70;52.80;;;;;;5033406;28;20200;-58
2023/01/01 07:21:33;;;;;;;8.70;3.77;;;17.70;52.80;;;;;;5033385;28;20443;-57
2023/01/01 07:24:01;;;;;;;4.60;3.30;;;17.70;52.70;;;;;;5032531;28;20495;-58
2023/01/01 07:26:28;;;;;;;4.83;3.47;;;17.70;52.60;;;;;;5031670;28;20469;-58
2023/01/01 07:28:54;;;;;;;3.97;3.57;;;17.70;52.60;;;;;;5033315;28;20825;-58
2023/01/01 07:31:19;;;;;;;3.60;3.20;;;17.70;52.40;;;;;;5032941;28;20582;-58
2023/01/01 07:33:45;;;;;;;6.80;3.73;;;17.70;52.60;;;;;;5032554;28;20566;-57
2023/01/01 07:36:11;;;;;;;4.80;3.80;;;17.90;52.10;;;;;;5033113;28;20185;-58
2023/01/01 07:38:36;;;;;;;5.83;3.83;;;18.00;51.70;;;;;;5032881;28;20201;-58
2023/01/01 07:41:02;;;;;;;6.07;3.20;;;18.40;51.20;;;;;;5032838;28;20193;-58
2023/01/01 07:43:27;;;;;;;4.67;4.20;;;18.70;50.40;;;;;;5032405;28;20700;-58
2023/01/01 07:45:53;;;;;;;4.70;4.13;;;19.20;49.60;;;;;;5032797;28;20567;-58
2023/01/01 07:48:19;;;;;;;5.37;3.50;;;19.50;48.70;;;;;;5032619;28;20201;-58
2023/01/01 07:50:44;;;;;;;4.70;2.87;;;19.80;48.10;;;;;;5032698;28;20197;-58
2023/01/01 07:53:10;;;;;;;4.20;3.53;;;20.00;47.60;;;;;;5030937;28;20202;-58
2023/01/01 07:55:35;;;;;;;4.93;3.20;;;19.80;47.60;;;;;;5032679;28;20272;-58
2023/01/01 07:58:01;;;;;;;4.93;3.60;;;19.70;47.90;;;;;;5032827;28;20239;-58
2023/01/01 08:00:27;;;;;;;4.27;3.23;;;19.60;48.00;;;;;;5032365;28;20250;-58
2023/01/01 08:02:53;;;;;;;7.30;4.10;;;19.30;48.50;;;;;;5032016;28;20806;-58
2023/01/01 08:05:18;;;;;;;4.27;3.50;;;19.20;48.80;;;;;;5032381;28;20640;-58
2023/01/01 08:07:46;;;;;;;5.13;4.37;;;19.20;48.90;;;;;;5032317;28;20221;-58
2023/01/01 08:10:11;;;;;;;7.30;3.70;;;19.00;49.30;;;;;;5032490;28;20193;-58
2023/01/01 08:12:37;;;;;;;4.50;4.03;;;19.00;49.70;;;;;;5032108;28;20450;-58
2023/01/01 08:15:03;;;;;;;4.23;3.83;;;18.90;49.80;;;;;;5031798;28;20210;-58
2023/01/01 08:17:28;;;;;;;6.10;4.57;;;18.80;50.00;;;;;;5032171;28;20189;-58
2023/01/01 08:19:54;;;;;;;4.43;3.93;;;18.80;50.20;;;;;;5030366;28;20239;-58
2023/01/01 08:22:19;;;;;;;7.83;4.67;;;18.80;50.20;;;;;;5031971;28;20367;-58
2023/01/01 08:24:45;;;;;;;5.50;4.60;;;18.80;50.10;;;;;;5030535;28;20236;-58
2023/01/01 08:27:13;;;;;;;4.73;3.87;;;18.70;50.50;;;;;;5032173;28;20212;-58
2023/01/01 08:29:39;;;;;;;6.10;4.10;;;18.60;50.60;;;;;;5032180;28;20189;-57
2023/01/01 08:32:04;;;;;;;4.50;3.90;;;18.70;51.20;;;;;;5031969;28;20456;-58
2023/01/01 08:34:30;;;;;;;4.37;3.97;;;18.50;50.60;;;;;;5031539;28;20216;-57
2023/01/01 08:36:55;;;;;;;6.43;4.83;;;18.40;50.90;;;;;;5031933;28;20662;-58
2023/01/01 08:39:21;;;;;;;5.33;4.00;;;18.40;50.90;;;;;;5031766;28;20192;-58
2023/01/01 08:41:47;;;;;;;6.50;4.23;;;18.40;50.90;;;;;;5031586;28;20204;-58
2023/01/01 08:44:12;;;;;;;4.47;3.90;;;18.40;51.00;;;;;;5031243;28;20248;-58
2023/01/01 08:46:38;;;;;;;6.30;4.20;;;18.30;51.10;;;;;;5030197;28;20217;-58
2023/01/01 08:49:03;;;;;;;4.50;4.10;;;18.20;51.10;;;;;;5031438;28;20645;-58
2023/01/01 08:51:29;;;;;;;8.97;5.37;;;18.00;51.50;;;;;;5031455;28;20617;-58
2023/01/01 08:53:54;;;;;;;4.93;4.40;;;18.10;51.70;;;;;;5031036;28;20738;-58
2023/01/01 08:56:20;;;;;;;4.13;3.73;;;18.20;51.40;;;;;;5031365;28;20602;-58
2023/01/01 08:58:46;;;;;;;5.73;4.07;;;18.40;51.10;;;;;;5031639;28;20202;-58
2023/01/01 09:01:11;;;;;;;5.40;4.90;;;18.50;50.80;;;;;;5031527;28;20689;-58
2023/01/01 09:03:37;;;;;;;6.47;4.20;;;18.50;50.80;;;;;;5031103;28;20221;-58
2023/01/01 09:06:02;;;;;;;7.13;5.60;;;18.30;50.80;;;;;;5031373;28;20705;-58
2023/01/01 09:08:28;;;;;;;5.07;4.30;;;18.40;51.10;;;;;;5031230;28;20273;-58
2023/01/01 09:11:01;;;;;;;6.60;4.80;;;18.40;51.50;;;;;;5031059;28;20225;-58
2023/01/01 09:13:27;;;;;;;5.10;4.10;;;18.50;51.00;;;;;;5029050;28;20211;-58
2023/01/01 09:15:53;;;;;;;4.60;4.00;;;18.40;51.30;;;;;;5031284;28;20924;-58
2023/01/01 09:18:19;;;;;;;4.53;4.17;;;18.30;51.50;;;;;;5030876;28;20434;-58
2023/01/01 09:20:44;;;;;;;7.60;5.57;;;18.40;51.60;;;;;;5031109;28;20189;-58
2023/01/01 09:23:11;;;;;;;4.70;4.30;;;18.50;51.60;;;;;;5030604;28;20484;-58
2023/01/01 09:25:37;;;;;;;6.60;4.80;;;18.60;51.40;;;;;;5031121;28;20562;-58
2023/01/01 09:28:06;;;;;;;5.37;4.70;;;18.50;51.30;;;;;;5031192;28;20842;-58
2023/01/01 09:30:33;;;;;;;6.40;3.70;;;18.50;51.30;;;;;;5031093;28;20928;-57
2023/01/01 09:32:59;;;;;;;4.77;4.00;;;18.70;51.00;;;;;;5030642;28;20776;-58
2023/01/01 09:35:24;;;;;;;4.70;3.73;;;18.90;50.80;;;;;;5030756;28;20427;-58
2023/01/01 09:37:50;;;;;;;4.43;4.03;;;19.00;50.70;;;;;;5029748;28;20221;-58
2023/01/01 09:40:34;;;;;;;5.83;3.93;;;19.10;50.50;;;;;;5030552;28;20201;-58
2023/01/01 09:43:17;;;;;;;3.77;3.37;;;19.10;50.40;;;;;;5030320;28;20197;-58
2023/01/01 09:46:00;;;;;;;4.67;3.80;;;19.30;50.10;;;;;;5031140;28;20435;-58
2023/01/01 09:48:28;;;;;;;7.30;3.63;;;19.40;49.80;;;;;;5030940;28;20471;-58
2023/01/01 09:50:53;;;;;;;3.73;3.17;;;19.30;49.70;;;;;;5031016;28;20424;-58
2023/01/01 09:53:50;;;;;;;5.63;3.93;;;19.40;49.40;;;;;;5030379;28;20942;-58
2023/01/01 09:56:28;;;;;;;4.50;4.10;;;19.50;49.50;;;;;;5030288;28;20213;-58
2023/01/01 09:58:57;;;;;;;5.23;3.97;;;19.40;49.70;;;;;;5030848;28;20420;-58
2023/01/01 10:01:41;;;;;;;3.60;3.30;;;19.50;49.60;;;;;;5030828;28;20448;-58
2023/01/01 10:04:28;;;;;;;7.20;4.00;;;19.70;49.20;;;;;;5029954;28;20475;-58
2023/01/01 10:07:26;;;;;;;4.90;3.63;;;19.90;48.50;;;;;;5030680;28;20844;-58
2023/01/01 10:10:10;;;;;;;5.70;4.43;;;20.10;48.30;;;;;;5030702;28;20512;-58
2023/01/01 10:12:43;;;;;;;5.40;4.10;;;20.30;47.60;;;;;;5030316;28;20927;-58
2023/01/01 10:15:30;;;;;;;3.50;3.20;;;20.60;47.50;;;;;;5030707;28;20424;-58
2023/01/01 10:18:03;;;;;;;6.33;4.10;;;20.80;47.00;;;;;;5030680;28;20803;-58
2023/01/01 10:20:36;;;;;;;4.80;3.53;;;21.00;46.80;;;;;;5030712;28;20443;-58
2023/01/01 10:23:26;;;;;;;4.00;3.40;;;21.20;46.30;;;;;;5030133;28;20468;-58
2023/01/01 10:25:55;;;;;;;5.23;3.13;;;21.50;45.90;;;;;;5030741;28;20486;-58
2023/01/01 10:28:38;;;;;;;4.73;3.30;;;21.50;45.30;;;;;;5030321;28;20423;-58
2023/01/01 10:31:18;;;;;;;4.13;2.90;;;21.60;45.30;;;;;;5028677;28;20454;-58
2023/01/01 10:33:45;;;;;;;3.90;3.27;;;21.60;45.00;;;;;;5029957;28;20443;-58
2023/01/01 10:36:15;;;;;;;4.43;3.57;;;21.70;44.90;;;;;;5030547;28;20481;-58
2023/01/01 10:38:41;;;;;;;4.40;3.07;;;21.80;45.10;;;;;;5030609;28;20435;-58
2023/01/01 10:41:09;;;;;;;5.37;3.77;;;22.00;44.60;;;;;;5030129;28;20440;-58
2023/01/01 10:43:35;;;;;;;4.70;3.00;;;22.20;44.20;;;;;;5030051;28;20213;-58
2023/01/01 10:46:01;;;;;;;6.00;3.50;;;22.20;43.70;;;;;;5030397;28;20439;-58
2023/01/01 10:48:29;;;;;;;5.47;3.17;;;22.20;44.00;;;;;;5033242;28;20195;-58
2023/01/01 10:51:01;;;;;;;5.40;3.73;;;22.30;44.30;;;;;;5033766;28;20558;-58
2023/01/01 10:53:30;;;;;;;4.30;3.33;;;22.40;43.90;;;;;;5033407;28;20790;-58
2023/01/01 10:55:58;;;;;;;4.87;3.57;;;22.40;43.40;;;;;;5033588;28;20442;-58
2023/01/01 10:58:31;;;;;;;4.33;3.40;;;22.50;43.60;;;;;;5032080;28;20436;-58
2023/01/01 11:00:59;;;;;;;5.67;3.63;;;22.60;43.50;;;;;;5033838;28;20496;-58
2023/01/01 11:03:25;;;;;;;5.30;2.60;;;22.80;43.40;;;;;;5033133;28;20479;-58
2023/01/01 11:06:03;;;;;;;3.70;3.17;;;22.80;42.60;;;;;;5033674;28;20424;-58
2023/01/01 11:08:30;;;;;;;4.50;3.53;;;22.80;42.70;;;;;;5033263;28;20201;-58
2023/01/01 11:11:00;;;;;;;3.60;2.73;;;23.00;42.50;;;;;;5033229;28;20811;-58
2023/01/01 11:13:28;;;;;;;4.90;3.87;;;23.10;42.40;;;;;;5032979;28;20415;-58
2023/01/01 11:15:54;;;;;;;3.40;3.10;;;23.20;41.90;;;;;;5033446;28;20440;-58
2023/01/01 11:18:24;;;;;;;3.07;2.77;;;23.30;42.10;;;;;;5031847;28;20831;-58
2023/01/01 11:20:55;;;;;;;4.47;3.47;;;23.40;41.80;;;;;;5033123;28;20440;-58
2023/01/01 11:23:35;;;;;;;5.03;3.60;;;23.40;41.60;;;;;;5032377;28;20537;-58
2023/01/01 11:26:06;;;;;;;3.10;2.80;;;23.30;41.70;;;;;;5031707;28;20428;-59
2023/01/01 11:28:33;;;;;;;3.87;2.70;;;23.40;41.60;;;;;;5032955;28;20473;-59
2023/01/01 11:31:09;;;;;;;4.77;3.23;;;23.30;41.40;;;;;;5033002;28;20424;-58
2023/01/01 11:33:57;;;;;;;4.20;3.00;;;23.30;41.20;;;;;;5032561;28;20419;-59
2023/01/01 11:36:24;;;;;;;2.63;2.43;;;22.80;41.10;;;;;;5032411;28;20478;-59
2023/01/01 11:39:04;;;;;;;3.90;3.07;;;22.50;41.80;;;;;;5033050;28;20424;-59
2023/01/01 11:41:43;;;;;;;5.00;3.00;;;22.50;42.30;;;;;;5033084;28;20451;-59
2023/01/01 11:44:11;;;;;;;3.30;2.37;;;22.30;42.50;;;;;;5032690;28;20500;-59
2023/01/01 11:46:38;;;;;;;4.40;2.87;;;22.30;42.40;;;;;;5032569;28;20416;-59
2023/01/01 11:49:13;;;;;;;2.70;2.50;;;22.40;42.70;;;;;;5032660;28;21017;-59
2023/01/01 11:51:39;;;;;;;3.17;2.87;;;22.30;42.50;;;;;;5031364;28;20424;-59
2023/01/01 11:54:31;;;;;;;5.50;2.90;;;22.30;42.80;;;;;;5032184;28;20765;-59
2023/01/01 11:57:20;;;;;;;5.30;2.67;;;22.40;42.70;;;;;;5032478;28;20211;-59
2023/01/01 11:59:57;;;;;;;4.30;2.50;;;22.30;42.40;;;;;;5032618;28;20436;-58
2023/01/01 12:02:49;;;;;;;2.83;2.50;;;22.30;42.50;;;;;;5032190;28;20750;-59
2023/01/01 12:05:39;;;;;;;7.70;3.50;;;22.20;42.40;;;;;;5011323;28;20531;-58
2023/01/01 12:08:09;;;;;;;3.00;2.47;;;22.30;42.60;;;;;;5031898;28;20523;-59
2023/01/01 12:10:47;;;;;;;3.90;2.80;;;22.30;42.20;;;;;;5032173;28;20951;-59
2023/01/01 12:13:21;;;;;;;3.07;2.60;;;22.30;43.00;;;;;;5031941;28;20461;-59
2023/01/01 12:16:00;;;;;;;4.07;2.73;;;22.40;42.40;;;;;;5032210;28;20442;-59
2023/01/01 12:18:31;;;;;;;6.00;2.80;;;22.60;42.20;;;;;;5030647;28;20430;-59
2023/01/01 12:21:40;;;;;;;3.87;2.80;;;22.80;42.10;;;;;;5032147;28;20991;-59
2023/01/01 12:24:11;;;;;;;3.87;2.60;;;22.70;41.50;;;;;;5022580;28;20852;-59
2023/01/01 12:27:24;;;;;;;6.97;3.23;;;22.70;41.60;;;;;;5031956;28;20460;-59
2023/01/01 12:30:22;;;;;;;5.03;3.27;;;22.80;41.50;;;;;;5022960;28;20444;-59
2023/01/01 12:33:26;;;;;;;4.40;2.70;;;22.90;41.60;;;;;;5031632;28;20530;-58
2023/01/01 12:36:05;;;;;;;5.37;2.77;;;23.00;41.50;;;;;;5032018;28;20440;-59
2023/01/01 12:39:28;;;;;;;5.23;2.90;;;23.00;41.50;;;;;;5032042;28;20460;-58
2023/01/01 12:42:05;;;;;;;3.87;2.33;;;23.10;41.00;;;;;;5031669;28;20432;-59
2023/01/01 12:44:47;;;;;;;4.30;3.00;;;23.20;41.40;;;;;;5029890;28;20514;-59
2023/01/01 12:47:39;;;;;;;5.07;3.40;;;23.30;41.30;;;;;;5031842;28;20440;-59
2023/01/01 12:50:33;;;;;;;4.90;3.03;;;23.30;40.90;;;;;;5031711;28;20451;-59
2023/01/01 12:53:31;;;;;;;5.80;2.57;;;23.40;40.70;;;;;;5031169;28;20451;-59
2023/01/01 12:56:39;;;;;;;3.80;2.80;;;23.40;40.50;;;;;;5031552;28;20813;-59
2023/01/01 12:59:16;;;;;;;3.53;2.50;;;23.40;40.20;;;;;;5029117;28;20547;-59
2023/01/01 13:01:42;;;;;;;4.70;2.60;;;23.50;40.40;;;;;;5031606;28;20538;-59
2023/01/01 13:04:16;;;;;;;7.50;3.60;;;23.50;40.20;;;;;;5031060;28;20579;-59
2023/01/01 13:06:44;;;;;;;7.00;3.10;;;23.70;40.30;;;;;;5031550;28;20518;-59
2023/01/01 13:09:17;;;;;;;4.17;3.10;;;23.70;40.20;;;;;;5031259;28;20818;-59
2023/01/01 13:11:47;;;;;;;4.77;2.50;;;23.70;40.10;;;;;;5029490;28;20507;-59
2023/01/01 13:14:13;;;;;;;5.30;2.57;;;23.80;40.30;;;;;;5031267;28;20460;-59
2023/01/01 13:16:40;;;;;;;2.77;2.33;;;23.70;39.70;;;;;;5031532;28;20498;-59